Satsuma, Alabama
Current Conditions -  °F | °C
As of 8:53 AM on Saturday 20 Dec 2014 (Local Time) from KBFM Reporting Station
Light Rain Light Rain  
Wind Chill: 45°   Ceiling: 800
Heat Index: 49°   Visibility: 8mi
Dew Point: 47°   Wind: 9mph
Humidity: 93%   Direction: 20°NNE
Pressure: 30.17"   Gusts: 20mph
Location:  30.85°N, 88.06°W
Report Text: KBFM 201453Z 02008G17KT 8SM -RA OVC008 09/08 A3017 RMK AO2 SLP215 P0002 60012 T00940083 50007
Loading
Personal Weather Stations






























Interactive Weather Map New forecast layout! Learn more

10-Day Weather Forecast

Advertisements
Track Severe Weather on mobile